sensor_id;sensor_type;location;lat;lon;timestamp;temperature;humidity
17252;DHT22;8742;51.716;8.790;2023-06-24T00:01:59;14.60;99.90
17252;DHT22;8742;51.716;8.790;2023-06-24T00:04:28;14.50;99.90
17252;DHT22;8742;51.716;8.790;2023-06-24T00:06:55;14.50;99.90
17252;DHT22;8742;51.716;8.790;2023-06-24T00:09:24;14.50;99.90
17252;DHT22;8742;51.716;8.790;2023-06-24T00:11:53;14.40;99.90
17252;DHT22;8742;51.716;8.790;2023-06-24T00:14:20;14.40;99.90
17252;DHT22;8742;51.716;8.790;2023-06-24T00:16:47;14.40;99.90
17252;DHT22;8742;51.716;8.790;2023-06-24T00:19:18;14.40;99.90
17252;DHT22;8742;51.716;8.790;2023-06-24T00:21:46;14.40;99.90
17252;DHT22;8742;51.716;8.790;2023-06-24T00:24:13;14.40;99.90
17252;DHT22;8742;51.716;8.790;2023-06-24T00:26:40;14.30;99.90
17252;DHT22;8742;51.716;8.790;2023-06-24T00:29:07;14.30;99.90
17252;DHT22;8742;51.716;8.790;2023-06-24T00:31:33;14.30;99.90
17252;DHT22;8742;51.716;8.790;2023-06-24T00:34:00;14.40;99.90
17252;DHT22;8742;51.716;8.790;2023-06-24T00:36:27;14.30;99.90
17252;DHT22;8742;51.716;8.790;2023-06-24T00:38:56;14.30;99.90
17252;DHT22;8742;51.716;8.790;2023-06-24T00:41:26;14.30;99.90
17252;DHT22;8742;51.716;8.790;2023-06-24T00:43:54;14.30;99.90
17252;DHT22;8742;51.716;8.790;2023-06-24T00:46:22;14.20;99.90
17252;DHT22;8742;51.716;8.790;2023-06-24T00:48:50;14.20;99.90
17252;DHT22;8742;51.716;8.790;2023-06-24T00:51:17;14.20;99.90
17252;DHT22;8742;51.716;8.790;2023-06-24T00:53:46;14.20;99.90
17252;DHT22;8742;51.716;8.790;2023-06-24T00:56:16;14.20;99.90
17252;DHT22;8742;51.716;8.790;2023-06-24T00:58:44;14.10;99.90
17252;DHT22;8742;51.716;8.790;2023-06-24T01:01:12;14.10;99.90
17252;DHT22;8742;51.716;8.790;2023-06-24T01:03:40;14.10;99.90
17252;DHT22;8742;51.716;8.790;2023-06-24T01:06:08;14.10;99.90
17252;DHT22;8742;51.716;8.790;2023-06-24T01:08:35;14.10;99.90
17252;DHT22;8742;51.716;8.790;2023-06-24T01:11:03;14.00;99.90
17252;DHT22;8742;51.716;8.790;2023-06-24T01:13:31;14.00;99.90
17252;DHT22;8742;51.716;8.790;2023-06-24T01:16:02;14.00;99.90
17252;DHT22;8742;51.716;8.790;2023-06-24T01:18:34;14.00;99.90
17252;DHT22;8742;51.716;8.790;2023-06-24T01:21:05;13.90;99.90
17252;DHT22;8742;51.716;8.790;2023-06-24T01:23:56;13.90;99.90
17252;DHT22;8742;51.716;8.790;2023-06-24T01:26:42;13.90;99.90
17252;DHT22;8742;51.716;8.790;2023-06-24T01:29:26;13.90;99.90
17252;DHT22;8742;51.716;8.790;2023-06-24T01:31:59;13.80;99.90
17252;DHT22;8742;51.716;8.790;2023-06-24T01:34:34;13.80;99.90
17252;DHT22;8742;51.716;8.790;2023-06-24T01:37:10;13.80;99.90
17252;DHT22;8742;51.716;8.790;2023-06-24T01:39:49;13.80;99.90
17252;DHT22;8742;51.716;8.790;2023-06-24T01:42:17;13.80;99.90
17252;DHT22;8742;51.716;8.790;2023-06-24T01:44:47;13.70;99.90
17252;DHT22;8742;51.716;8.790;2023-06-24T01:47:19;13.70;99.90
17252;DHT22;8742;51.716;8.790;2023-06-24T01:49:46;13.70;99.90
17252;DHT22;8742;51.716;8.790;2023-06-24T01:52:14;13.70;99.90
17252;DHT22;8742;51.716;8.790;2023-06-24T01:54:42;13.70;99.90
17252;DHT22;8742;51.716;8.790;2023-06-24T01:57:12;13.60;99.90
17252;DHT22;8742;51.716;8.790;2023-06-24T01:59:41;13.60;99.90
17252;DHT22;8742;51.716;8.790;2023-06-24T02:02:09;13.60;99.90
17252;DHT22;8742;51.716;8.790;2023-06-24T02:04:38;13.60;99.90
17252;DHT22;8742;51.716;8.790;2023-06-24T02:07:06;13.60;99.90
17252;DHT22;8742;51.716;8.790;2023-06-24T02:09:35;13.60;99.90
17252;DHT22;8742;51.716;8.790;2023-06-24T02:12:03;13.60;99.90
17252;DHT22;8742;51.716;8.790;2023-06-24T02:14:31;13.60;99.90
17252;DHT22;8742;51.716;8.790;2023-06-24T02:17:00;13.60;99.90
17252;DHT22;8742;51.716;8.790;2023-06-24T02:19:29;13.50;99.90
17252;DHT22;8742;51.716;8.790;2023-06-24T02:21:59;13.50;99.90
17252;DHT22;8742;51.716;8.790;2023-06-24T02:24:27;13.50;99.90
17252;DHT22;8742;51.716;8.790;2023-06-24T02:26:56;13.50;99.90
17252;DHT22;8742;51.716;8.790;2023-06-24T02:29:25;13.50;99.90
17252;DHT22;8742;51.716;8.790;2023-06-24T02:31:52;13.50;99.90
17252;DHT22;8742;51.716;8.790;2023-06-24T02:34:19;13.40;99.90
17252;DHT22;8742;51.716;8.790;2023-06-24T02:36:46;13.50;99.90
17252;DHT22;8742;51.716;8.790;2023-06-24T02:39:15;13.40;99.90
17252;DHT22;8742;51.716;8.790;2023-06-24T02:41:41;13.40;99.90
17252;DHT22;8742;51.716;8.790;2023-06-24T02:44:09;13.40;99.90
17252;DHT22;8742;51.716;8.790;2023-06-24T02:46:36;13.30;99.90
17252;DHT22;8742;51.716;8.790;2023-06-24T02:49:04;13.40;99.90
17252;DHT22;8742;51.716;8.790;2023-06-24T02:51:32;13.30;99.90
17252;DHT22;8742;51.716;8.790;2023-06-24T02:53:59;13.30;99.90
17252;DHT22;8742;51.716;8.790;2023-06-24T02:56:28;13.30;99.90
17252;DHT22;8742;51.716;8.790;2023-06-24T02:58:55;13.30;99.90
17252;DHT22;8742;51.716;8.790;2023-06-24T03:01:22;13.30;99.90
17252;DHT22;8742;51.716;8.790;2023-06-24T03:03:53;13.30;99.90
17252;DHT22;8742;51.716;8.790;2023-06-24T03:06:21;13.30;99.90
17252;DHT22;8742;51.716;8.790;2023-06-24T03:08:48;13.20;99.90
17252;DHT22;8742;51.716;8.790;2023-06-24T03:11:15;13.20;99.90
17252;DHT22;8742;51.716;8.790;2023-06-24T03:13:43;13.20;99.90
17252;DHT22;8742;51.716;8.790;2023-06-24T03:16:11;13.20;99.90
17252;DHT22;8742;51.716;8.790;2023-06-24T03:18:40;13.20;99.90
17252;DHT22;8742;51.716;8.790;2023-06-24T03:21:07;13.20;99.90
17252;DHT22;8742;51.716;8.790;2023-06-24T03:23:34;13.20;99.90
17252;DHT22;8742;51.716;8.790;2023-06-24T03:26:00;13.20;99.90
17252;DHT22;8742;51.716;8.790;2023-06-24T03:28:28;13.20;99.90
17252;DHT22;8742;51.716;8.790;2023-06-24T03:30:56;13.20;99.90
17252;DHT22;8742;51.716;8.790;2023-06-24T03:33:23;13.20;99.90
17252;DHT22;8742;51.716;8.790;2023-06-24T03:35:52;13.20;99.90
17252;DHT22;8742;51.716;8.790;2023-06-24T03:38:19;13.20;99.90
17252;DHT22;8742;51.716;8.790;2023-06-24T03:40:46;13.30;99.90
17252;DHT22;8742;51.716;8.790;2023-06-24T03:43:13;13.30;99.90
17252;DHT22;8742;51.716;8.790;2023-06-24T03:45:40;13.30;99.90
17252;DHT22;8742;51.716;8.790;2023-06-24T03:48:08;13.30;99.90
17252;DHT22;8742;51.716;8.790;2023-06-24T03:50:35;13.30;99.90
17252;DHT22;8742;51.716;8.790;2023-06-24T03:53:02;13.40;99.90
17252;DHT22;8742;51.716;8.790;2023-06-24T03:55:29;13.30;99.90
17252;DHT22;8742;51.716;8.790;2023-06-24T03:57:55;13.40;99.90
17252;DHT22;8742;51.716;8.790;2023-06-24T04:00:22;13.40;99.90
17252;DHT22;8742;51.716;8.790;2023-06-24T04:02:49;13.40;99.90
17252;DHT22;8742;51.716;8.790;2023-06-24T04:05:36;13.50;99.90
17252;DHT22;8742;51.716;8.790;2023-06-24T04:08:04;13.50;99.90
17252;DHT22;8742;51.716;8.790;2023-06-24T04:10:31;13.60;99.90
17252;DHT22;8742;51.716;8.790;2023-06-24T04:12:58;13.70;99.90
17252;DHT22;8742;51.716;8.790;2023-06-24T04:15:25;13.70;99.90
17252;DHT22;8742;51.716;8.790;2023-06-24T04:17:52;13.80;99.90
17252;DHT22;8742;51.716;8.790;2023-06-24T04:20:19;13.90;99.90
17252;DHT22;8742;51.716;8.790;2023-06-24T04:22:47;14.00;99.90
17252;DHT22;8742;51.716;8.790;2023-06-24T04:25:14;14.00;99.90
17252;DHT22;8742;51.716;8.790;2023-06-24T04:27:41;14.10;99.90
17252;DHT22;8742;51.716;8.790;2023-06-24T04:30:08;14.20;99.90
17252;DHT22;8742;51.716;8.790;2023-06-24T04:32:35;14.30;99.90
17252;DHT22;8742;51.716;8.790;2023-06-24T04:35:02;14.40;99.90
17252;DHT22;8742;51.716;8.790;2023-06-24T04:37:30;14.50;99.90
17252;DHT22;8742;51.716;8.790;2023-06-24T04:40:04;14.50;99.90
17252;DHT22;8742;51.716;8.790;2023-06-24T04:42:39;14.60;99.90
17252;DHT22;8742;51.716;8.790;2023-06-24T04:45:06;14.80;99.90
17252;DHT22;8742;51.716;8.790;2023-06-24T04:47:33;14.80;99.90
17252;DHT22;8742;51.716;8.790;2023-06-24T04:50:19;14.90;99.90
17252;DHT22;8742;51.716;8.790;2023-06-24T04:52:52;15.00;99.90
17252;DHT22;8742;51.716;8.790;2023-06-24T04:55:21;15.10;99.90
17252;DHT22;8742;51.716;8.790;2023-06-24T04:57:48;15.20;99.90
17252;DHT22;8742;51.716;8.790;2023-06-24T05:00:15;15.30;99.90
17252;DHT22;8742;51.716;8.790;2023-06-24T05:02:42;15.40;99.90
17252;DHT22;8742;51.716;8.790;2023-06-24T05:05:21;15.50;99.90
17252;DHT22;8742;51.716;8.790;2023-06-24T05:07:48;15.60;99.90
17252;DHT22;8742;51.716;8.790;2023-06-24T05:10:15;15.70;99.90
17252;DHT22;8742;51.716;8.790;2023-06-24T05:12:44;15.90;99.90
17252;DHT22;8742;51.716;8.790;2023-06-24T05:15:10;16.00;99.90
17252;DHT22;8742;51.716;8.790;2023-06-24T05:17:37;16.10;99.90
17252;DHT22;8742;51.716;8.790;2023-06-24T05:20:05;16.20;99.90
17252;DHT22;8742;51.716;8.790;2023-06-24T05:22:32;16.40;99.90
17252;DHT22;8742;51.716;8.790;2023-06-24T05:24:59;16.50;99.90
17252;DHT22;8742;51.716;8.790;2023-06-24T05:27:25;16.60;99.90
17252;DHT22;8742;51.716;8.790;2023-06-24T05:29:53;16.70;99.90
17252;DHT22;8742;51.716;8.790;2023-06-24T05:32:20;16.80;99.90
17252;DHT22;8742;51.716;8.790;2023-06-24T05:34:47;16.90;99.90
17252;DHT22;8742;51.716;8.790;2023-06-24T05:37:14;17.00;99.90
17252;DHT22;8742;51.716;8.790;2023-06-24T05:39:41;17.10;99.90
17252;DHT22;8742;51.716;8.790;2023-06-24T05:42:08;17.10;99.90
17252;DHT22;8742;51.716;8.790;2023-06-24T05:44:35;17.30;99.90
17252;DHT22;8742;51.716;8.790;2023-06-24T05:47:03;17.40;99.90
17252;DHT22;8742;51.716;8.790;2023-06-24T05:49:30;17.50;99.90
17252;DHT22;8742;51.716;8.790;2023-06-24T05:51:57;17.60;99.90
17252;DHT22;8742;51.716;8.790;2023-06-24T05:54:24;17.70;99.90
17252;DHT22;8742;51.716;8.790;2023-06-24T05:56:50;17.80;99.90
17252;DHT22;8742;51.716;8.790;2023-06-24T05:59:17;17.90;99.90
17252;DHT22;8742;51.716;8.790;2023-06-24T06:01:44;18.00;99.90
17252;DHT22;8742;51.716;8.790;2023-06-24T06:04:12;18.10;99.90
17252;DHT22;8742;51.716;8.790;2023-06-24T06:06:39;18.10;99.90
17252;DHT22;8742;51.716;8.790;2023-06-24T06:09:06;18.20;99.90
17252;DHT22;8742;51.716;8.790;2023-06-24T06:11:33;18.20;99.90
17252;DHT22;8742;51.716;8.790;2023-06-24T06:14:00;18.30;99.90
17252;DHT22;8742;51.716;8.790;2023-06-24T06:16:26;18.40;99.90
17252;DHT22;8742;51.716;8.790;2023-06-24T06:18:53;18.60;99.90
17252;DHT22;8742;51.716;8.790;2023-06-24T06:21:22;18.70;99.90
17252;DHT22;8742;51.716;8.790;2023-06-24T06:23:49;18.80;99.90
17252;DHT22;8742;51.716;8.790;2023-06-24T06:26:15;18.90;99.90
17252;DHT22;8742;51.716;8.790;2023-06-24T06:28:42;19.00;99.90
17252;DHT22;8742;51.716;8.790;2023-06-24T06:31:09;19.20;99.90
17252;DHT22;8742;51.716;8.790;2023-06-24T06:33:36;19.30;99.90
17252;DHT22;8742;51.716;8.790;2023-06-24T06:36:03;19.40;99.90
17252;DHT22;8742;51.716;8.790;2023-06-24T06:38:32;19.50;99.90
17252;DHT22;8742;51.716;8.790;2023-06-24T06:40:59;19.60;99.90
17252;DHT22;8742;51.716;8.790;2023-06-24T06:43:26;19.80;99.90
17252;DHT22;8742;51.716;8.790;2023-06-24T06:45:53;19.90;99.90
17252;DHT22;8742;51.716;8.790;2023-06-24T06:48:19;20.00;99.90
17252;DHT22;8742;51.716;8.790;2023-06-24T06:50:46;20.10;99.90
17252;DHT22;8742;51.716;8.790;2023-06-24T06:53:13;20.20;99.90
17252;DHT22;8742;51.716;8.790;2023-06-24T06:55:41;20.40;99.90
17252;DHT22;8742;51.716;8.790;2023-06-24T06:58:08;20.50;99.90
17252;DHT22;8742;51.716;8.790;2023-06-24T07:00:35;20.60;99.90
17252;DHT22;8742;51.716;8.790;2023-06-24T07:03:02;20.80;99.90
17252;DHT22;8742;51.716;8.790;2023-06-24T07:05:29;20.90;99.90
17252;DHT22;8742;51.716;8.790;2023-06-24T07:07:56;21.10;99.90
17252;DHT22;8742;51.716;8.790;2023-06-24T07:10:23;21.20;99.90
17252;DHT22;8742;51.716;8.790;2023-06-24T07:12:51;21.40;99.90
17252;DHT22;8742;51.716;8.790;2023-06-24T07:15:24;21.60;99.90
17252;DHT22;8742;51.716;8.790;2023-06-24T07:17:51;21.70;99.90
17252;DHT22;8742;51.716;8.790;2023-06-24T07:20:18;21.80;99.90
17252;DHT22;8742;51.716;8.790;2023-06-24T07:22:45;22.00;99.90
17252;DHT22;8742;51.716;8.790;2023-06-24T07:25:11;22.10;99.90
17252;DHT22;8742;51.716;8.790;2023-06-24T07:27:38;22.20;99.90
17252;DHT22;8742;51.716;8.790;2023-06-24T07:30:07;22.40;99.90
17252;DHT22;8742;51.716;8.790;2023-06-24T07:32:35;22.50;99.90
17252;DHT22;8742;51.716;8.790;2023-06-24T07:35:02;22.60;99.90
17252;DHT22;8742;51.716;8.790;2023-06-24T07:37:29;22.70;99.90
17252;DHT22;8742;51.716;8.790;2023-06-24T07:39:56;22.90;99.90
17252;DHT22;8742;51.716;8.790;2023-06-24T07:42:22;23.00;99.90
17252;DHT22;8742;51.716;8.790;2023-06-24T07:44:49;23.10;99.90
17252;DHT22;8742;51.716;8.790;2023-06-24T07:47:18;23.30;99.90
17252;DHT22;8742;51.716;8.790;2023-06-24T07:49:45;23.40;99.90
17252;DHT22;8742;51.716;8.790;2023-06-24T07:52:12;23.50;99.90
17252;DHT22;8742;51.716;8.790;2023-06-24T07:54:38;23.80;99.90
17252;DHT22;8742;51.716;8.790;2023-06-24T07:57:05;24.10;99.90
17252;DHT22;8742;51.716;8.790;2023-06-24T07:59:32;24.50;99.90
17252;DHT22;8742;51.716;8.790;2023-06-24T08:01:59;25.10;99.90
17252;DHT22;8742;51.716;8.790;2023-06-24T08:04:27;25.60;99.90
17252;DHT22;8742;51.716;8.790;2023-06-24T08:06:54;26.30;99.90
17252;DHT22;8742;51.716;8.790;2023-06-24T08:09:21;27.00;99.90
17252;DHT22;8742;51.716;8.790;2023-06-24T08:11:48;27.60;99.90
17252;DHT22;8742;51.716;8.790;2023-06-24T08:14:14;28.10;99.90
17252;DHT22;8742;51.716;8.790;2023-06-24T08:16:41;28.50;99.90
17252;DHT22;8742;51.716;8.790;2023-06-24T08:19:08;28.80;99.90
17252;DHT22;8742;51.716;8.790;2023-06-24T08:21:36;29.00;99.90
17252;DHT22;8742;51.716;8.790;2023-06-24T08:24:04;29.30;99.90
17252;DHT22;8742;51.716;8.790;2023-06-24T08:26:30;29.60;99.90
17252;DHT22;8742;51.716;8.790;2023-06-24T08:28:57;29.90;99.90
17252;DHT22;8742;51.716;8.790;2023-06-24T08:31:25;30.00;99.90
17252;DHT22;8742;51.716;8.790;2023-06-24T08:33:52;30.10;99.90
17252;DHT22;8742;51.716;8.790;2023-06-24T08:36:21;30.30;99.90
17252;DHT22;8742;51.716;8.790;2023-06-24T08:38:50;30.50;99.90
17252;DHT22;8742;51.716;8.790;2023-06-24T08:41:17;30.80;99.90
17252;DHT22;8742;51.716;8.790;2023-06-24T08:43:44;30.80;99.90
17252;DHT22;8742;51.716;8.790;2023-06-24T08:46:12;30.90;99.90
17252;DHT22;8742;51.716;8.790;2023-06-24T08:48:39;31.00;99.90
17252;DHT22;8742;51.716;8.790;2023-06-24T08:51:09;31.20;99.90
17252;DHT22;8742;51.716;8.790;2023-06-24T08:53:39;31.30;99.90
17252;DHT22;8742;51.716;8.790;2023-06-24T08:56:09;31.60;99.90
17252;DHT22;8742;51.716;8.790;2023-06-24T08:58:36;31.60;99.90
17252;DHT22;8742;51.716;8.790;2023-06-24T09:01:03;31.60;99.90
17252;DHT22;8742;51.716;8.790;2023-06-24T09:03:30;31.70;99.90
17252;DHT22;8742;51.716;8.790;2023-06-24T09:05:57;31.80;99.90
17252;DHT22;8742;51.716;8.790;2023-06-24T09:08:24;31.80;98.20
17252;DHT22;8742;51.716;8.790;2023-06-24T09:10:53;31.80;99.90
17252;DHT22;8742;51.716;8.790;2023-06-24T09:13:27;31.90;99.90
17252;DHT22;8742;51.716;8.790;2023-06-24T09:16:00;31.90;97.90
17252;DHT22;8742;51.716;8.790;2023-06-24T09:18:34;32.00;99.90
17252;DHT22;8742;51.716;8.790;2023-06-24T09:21:01;32.00;99.60
17252;DHT22;8742;51.716;8.790;2023-06-24T09:23:28;32.00;99.10
17252;DHT22;8742;51.716;8.790;2023-06-24T09:25:56;32.00;97.70
17252;DHT22;8742;51.716;8.790;2023-06-24T09:28:27;32.10;99.10
17252;DHT22;8742;51.716;8.790;2023-06-24T09:31:07;32.00;99.80
17252;DHT22;8742;51.716;8.790;2023-06-24T09:33:34;32.00;93.20
17252;DHT22;8742;51.716;8.790;2023-06-24T09:36:02;32.10;94.30
17252;DHT22;8742;51.716;8.790;2023-06-24T09:38:34;32.10;91.80
17252;DHT22;8742;51.716;8.790;2023-06-24T09:41:05;32.10;94.00
17252;DHT22;8742;51.716;8.790;2023-06-24T09:43:35;32.10;91.30
17252;DHT22;8742;51.716;8.790;2023-06-24T09:46:02;32.10;90.60
17252;DHT22;8742;51.716;8.790;2023-06-24T09:48:29;32.10;89.80
17252;DHT22;8742;51.716;8.790;2023-06-24T09:50:59;32.00;92.40
17252;DHT22;8742;51.716;8.790;2023-06-24T09:53:29;32.00;90.00
17252;DHT22;8742;51.716;8.790;2023-06-24T09:55:57;32.00;90.00
17252;DHT22;8742;51.716;8.790;2023-06-24T09:58:25;32.00;91.80
17252;DHT22;8742;51.716;8.790;2023-06-24T10:00:54;32.00;91.70
17252;DHT22;8742;51.716;8.790;2023-06-24T10:03:22;32.10;92.20
17252;DHT22;8742;51.716;8.790;2023-06-24T10:05:50;32.30;92.00
17252;DHT22;8742;51.716;8.790;2023-06-24T10:08:17;32.60;86.50
17252;DHT22;8742;51.716;8.790;2023-06-24T10:10:44;32.50;90.50
17252;DHT22;8742;51.716;8.790;2023-06-24T10:13:11;32.60;91.10
17252;DHT22;8742;51.716;8.790;2023-06-24T10:15:38;32.60;91.00
17252;DHT22;8742;51.716;8.790;2023-06-24T10:18:32;32.60;88.90
17252;DHT22;8742;51.716;8.790;2023-06-24T10:20:59;32.20;87.20
17252;DHT22;8742;51.716;8.790;2023-06-24T10:23:30;31.70;86.60
17252;DHT22;8742;51.716;8.790;2023-06-24T10:25:57;31.10;87.70
17252;DHT22;8742;51.716;8.790;2023-06-24T10:28:24;30.70;91.20
17252;DHT22;8742;51.716;8.790;2023-06-24T10:30:55;30.60;92.30
17252;DHT22;8742;51.716;8.790;2023-06-24T10:33:24;30.50;91.70
17252;DHT22;8742;51.716;8.790;2023-06-24T10:35:51;30.50;91.50
17252;DHT22;8742;51.716;8.790;2023-06-24T10:38:18;30.50;92.40
17252;DHT22;8742;51.716;8.790;2023-06-24T10:40:49;30.50;91.90
17252;DHT22;8742;51.716;8.790;2023-06-24T10:43:28;30.30;91.30
17252;DHT22;8742;51.716;8.790;2023-06-24T10:45:57;29.90;91.50
17252;DHT22;8742;51.716;8.790;2023-06-24T10:48:25;29.50;91.40
17252;DHT22;8742;51.716;8.790;2023-06-24T10:50:52;29.30;92.00
17252;DHT22;8742;51.716;8.790;2023-06-24T10:53:19;29.50;92.40
17252;DHT22;8742;51.716;8.790;2023-06-24T10:55:47;29.60;91.60
17252;DHT22;8742;51.716;8.790;2023-06-24T10:58:14;29.90;92.80
17252;DHT22;8742;51.716;8.790;2023-06-24T11:00:42;30.60;91.40
17252;DHT22;8742;51.716;8.790;2023-06-24T11:03:13;31.20;90.30
17252;DHT22;8742;51.716;8.790;2023-06-24T11:05:42;31.00;88.90
17252;DHT22;8742;51.716;8.790;2023-06-24T11:08:10;30.70;87.70
17252;DHT22;8742;51.716;8.790;2023-06-24T11:10:44;30.20;89.20
17252;DHT22;8742;51.716;8.790;2023-06-24T11:13:11;30.50;91.60
17252;DHT22;8742;51.716;8.790;2023-06-24T11:15:38;31.10;92.30
17252;DHT22;8742;51.716;8.790;2023-06-24T11:18:08;31.10;91.20
17252;DHT22;8742;51.716;8.790;2023-06-24T11:20:36;30.90;89.80
17252;DHT22;8742;51.716;8.790;2023-06-24T11:23:07;31.00;90.50
17252;DHT22;8742;51.716;8.790;2023-06-24T11:25:39;31.10;90.10
17252;DHT22;8742;51.716;8.790;2023-06-24T11:28:13;31.50;88.50
17252;DHT22;8742;51.716;8.790;2023-06-24T11:30:40;31.80;88.50
17252;DHT22;8742;51.716;8.790;2023-06-24T11:33:07;32.20;88.00
17252;DHT22;8742;51.716;8.790;2023-06-24T11:35:34;32.60;88.40
17252;DHT22;8742;51.716;8.790;2023-06-24T11:38:03;32.90;85.80
17252;DHT22;8742;51.716;8.790;2023-06-24T11:40:32;33.10;80.10
17252;DHT22;8742;51.716;8.790;2023-06-24T11:43:00;33.10;81.30
17252;DHT22;8742;51.716;8.790;2023-06-24T11:45:27;33.30;83.10
17252;DHT22;8742;51.716;8.790;2023-06-24T11:48:01;33.50;79.60
17252;DHT22;8742;51.716;8.790;2023-06-24T11:50:30;33.70;82.20
17252;DHT22;8742;51.716;8.790;2023-06-24T11:52:57;33.70;82.50
17252;DHT22;8742;51.716;8.790;2023-06-24T11:55:25;33.80;81.40
17252;DHT22;8742;51.716;8.790;2023-06-24T11:57:55;34.00;77.30
17252;DHT22;8742;51.716;8.790;2023-06-24T12:00:23;34.10;78.30
17252;DHT22;8742;51.716;8.790;2023-06-24T12:02:52;34.30;78.10
17252;DHT22;8742;51.716;8.790;2023-06-24T12:05:27;34.50;78.60
17252;DHT22;8742;51.716;8.790;2023-06-24T12:07:55;34.70;77.40
17252;DHT22;8742;51.716;8.790;2023-06-24T12:10:23;34.80;79.00
17252;DHT22;8742;51.716;8.790;2023-06-24T12:12:50;35.00;81.00
17252;DHT22;8742;51.716;8.790;2023-06-24T12:15:18;35.10;78.70
17252;DHT22;8742;51.716;8.790;2023-06-24T12:17:45;35.30;77.80
17252;DHT22;8742;51.716;8.790;2023-06-24T12:20:13;35.60;78.50
17252;DHT22;8742;51.716;8.790;2023-06-24T12:22:41;35.50;78.70
17252;DHT22;8742;51.716;8.790;2023-06-24T12:25:09;35.20;78.20
17252;DHT22;8742;51.716;8.790;2023-06-24T12:27:36;35.40;80.00
17252;DHT22;8742;51.716;8.790;2023-06-24T12:30:03;35.40;78.90
17252;DHT22;8742;51.716;8.790;2023-06-24T12:32:31;35.30;77.50
17252;DHT22;8742;51.716;8.790;2023-06-24T12:34:58;35.40;77.80
17252;DHT22;8742;51.716;8.790;2023-06-24T12:37:25;35.40;75.70
17252;DHT22;8742;51.716;8.790;2023-06-24T12:39:52;35.30;72.90
17252;DHT22;8742;51.716;8.790;2023-06-24T12:42:18;35.30;73.70
17252;DHT22;8742;51.716;8.790;2023-06-24T12:44:45;35.30;75.10
17252;DHT22;8742;51.716;8.790;2023-06-24T12:47:12;35.50;71.50
17252;DHT22;8742;51.716;8.790;2023-06-24T12:49:40;35.60;69.40
17252;DHT22;8742;51.716;8.790;2023-06-24T12:52:07;35.60;67.10
17252;DHT22;8742;51.716;8.790;2023-06-24T12:54:34;35.50;68.80
17252;DHT22;8742;51.716;8.790;2023-06-24T12:57:01;35.60;63.50
17252;DHT22;8742;51.716;8.790;2023-06-24T12:59:28;35.60;67.30
17252;DHT22;8742;51.716;8.790;2023-06-24T13:01:55;35.70;70.10
17252;DHT22;8742;51.716;8.790;2023-06-24T13:04:22;35.90;66.20
17252;DHT22;8742;51.716;8.790;2023-06-24T13:06:51;35.90;65.30
17252;DHT22;8742;51.716;8.790;2023-06-24T13:09:18;35.90;65.90
17252;DHT22;8742;51.716;8.790;2023-06-24T13:11:45;35.90;65.00
17252;DHT22;8742;51.716;8.790;2023-06-24T13:14:12;35.90;67.70
17252;DHT22;8742;51.716;8.790;2023-06-24T13:16:39;36.00;66.00
17252;DHT22;8742;51.716;8.790;2023-06-24T13:19:06;36.00;66.20
17252;DHT22;8742;51.716;8.790;2023-06-24T13:21:33;35.50;67.00
17252;DHT22;8742;51.716;8.790;2023-06-24T13:24:01;34.90;68.40
17252;DHT22;8742;51.716;8.790;2023-06-24T13:26:28;34.60;66.70
17252;DHT22;8742;51.716;8.790;2023-06-24T13:28:55;34.10;70.30
17252;DHT22;8742;51.716;8.790;2023-06-24T13:31:21;34.10;70.60
17252;DHT22;8742;51.716;8.790;2023-06-24T13:33:48;34.20;72.80
17252;DHT22;8742;51.716;8.790;2023-06-24T13:36:31;34.10;72.40
17252;DHT22;8742;51.716;8.790;2023-06-24T13:39:02;34.00;71.40
17252;DHT22;8742;51.716;8.790;2023-06-24T13:41:29;33.70;72.80
17252;DHT22;8742;51.716;8.790;2023-06-24T13:43:58;33.30;71.50
17252;DHT22;8742;51.716;8.790;2023-06-24T13:46:25;33.00;69.90
17252;DHT22;8742;51.716;8.790;2023-06-24T13:48:52;33.30;67.90
17252;DHT22;8742;51.716;8.790;2023-06-24T13:51:19;34.00;70.60
17252;DHT22;8742;51.716;8.790;2023-06-24T13:53:48;34.80;67.60
17252;DHT22;8742;51.716;8.790;2023-06-24T13:56:17;35.50;66.70
17252;DHT22;8742;51.716;8.790;2023-06-24T13:58:44;36.10;67.10
17252;DHT22;8742;51.716;8.790;2023-06-24T14:01:11;36.70;63.80
17252;DHT22;8742;51.716;8.790;2023-06-24T14:03:38;37.10;63.50
17252;DHT22;8742;51.716;8.790;2023-06-24T14:06:05;37.50;62.60
17252;DHT22;8742;51.716;8.790;2023-06-24T14:08:33;38.00;63.40
17252;DHT22;8742;51.716;8.790;2023-06-24T14:11:00;37.80;60.60
17252;DHT22;8742;51.716;8.790;2023-06-24T14:13:29;37.30;63.40
17252;DHT22;8742;51.716;8.790;2023-06-24T14:15:56;36.40;67.30
17252;DHT22;8742;51.716;8.790;2023-06-24T14:18:23;35.50;69.90
17252;DHT22;8742;51.716;8.790;2023-06-24T14:20:50;34.60;68.80
17252;DHT22;8742;51.716;8.790;2023-06-24T14:23:17;34.40;68.90
17252;DHT22;8742;51.716;8.790;2023-06-24T14:25:44;34.40;68.50
17252;DHT22;8742;51.716;8.790;2023-06-24T14:28:11;34.70;70.00
17252;DHT22;8742;51.716;8.790;2023-06-24T14:30:40;34.40;70.20
17252;DHT22;8742;51.716;8.790;2023-06-24T14:33:07;35.20;70.00
17252;DHT22;8742;51.716;8.790;2023-06-24T14:35:34;36.30;67.60
17252;DHT22;8742;51.716;8.790;2023-06-24T14:38:01;37.30;61.10
17252;DHT22;8742;51.716;8.790;2023-06-24T14:40:28;38.10;61.30
17252;DHT22;8742;51.716;8.790;2023-06-24T14:42:54;38.70;62.10
17252;DHT22;8742;51.716;8.790;2023-06-24T14:45:21;39.50;62.80
17252;DHT22;8742;51.716;8.790;2023-06-24T14:47:49;40.00;59.10
17252;DHT22;8742;51.716;8.790;2023-06-24T14:50:17;40.40;57.90
17252;DHT22;8742;51.716;8.790;2023-06-24T14:52:44;40.70;57.50
17252;DHT22;8742;51.716;8.790;2023-06-24T14:55:11;40.90;55.50
17252;DHT22;8742;51.716;8.790;2023-06-24T14:57:37;40.90;57.60
17252;DHT22;8742;51.716;8.790;2023-06-24T15:00:05;41.00;57.70
17252;DHT22;8742;51.716;8.790;2023-06-24T15:02:33;41.30;55.80
17252;DHT22;8742;51.716;8.790;2023-06-24T15:05:01;41.30;55.50
17252;DHT22;8742;51.716;8.790;2023-06-24T15:07:28;41.30;55.20
17252;DHT22;8742;51.716;8.790;2023-06-24T15:09:55;40.30;57.30
17252;DHT22;8742;51.716;8.790;2023-06-24T15:12:22;39.70;60.40
17252;DHT22;8742;51.716;8.790;2023-06-24T15:14:49;39.80;57.90
17252;DHT22;8742;51.716;8.790;2023-06-24T15:17:15;40.20;59.00
17252;DHT22;8742;51.716;8.790;2023-06-24T15:19:42;40.80;59.30
17252;DHT22;8742;51.716;8.790;2023-06-24T15:22:10;41.20;58.60
17252;DHT22;8742;51.716;8.790;2023-06-24T15:24:37;41.50;57.60
17252;DHT22;8742;51.716;8.790;2023-06-24T15:27:04;41.80;58.90
17252;DHT22;8742;51.716;8.790;2023-06-24T15:29:31;42.00;56.90
17252;DHT22;8742;51.716;8.790;2023-06-24T15:31:58;42.00;57.40
17252;DHT22;8742;51.716;8.790;2023-06-24T15:34:25;42.00;55.20
17252;DHT22;8742;51.716;8.790;2023-06-24T15:36:51;42.00;55.00
17252;DHT22;8742;51.716;8.790;2023-06-24T15:39:20;41.90;54.90
17252;DHT22;8742;51.716;8.790;2023-06-24T15:41:47;41.90;55.70
17252;DHT22;8742;51.716;8.790;2023-06-24T15:44:15;42.00;55.70
17252;DHT22;8742;51.716;8.790;2023-06-24T15:46:42;42.00;56.40
17252;DHT22;8742;51.716;8.790;2023-06-24T15:49:12;42.00;55.70
17252;DHT22;8742;51.716;8.790;2023-06-24T15:51:39;42.00;54.50